Time;durP1;ratioP1;P1;durP2;ratioP2;P2;SDS_P1;SDS_P2;PMS_P1;PMS_P2;Temp;Humidity;BMP_temperature;BMP_pressure;BME280_temperature;BME280_humidity;BME280_pressure;Samples;Min_cycle;Max_cycle;Signal;HPM_P1;HPM_P2
2022/08/31 00:04:46;;;;;;;1.10;0.57;;;20.70;83.10;;;;;;10520615;28;20115;-61
2022/08/31 00:09:48;;;;;;;0.50;0.45;;;20.60;83.00;;;;;;10522739;28;20024;-61
2022/08/31 00:14:49;;;;;;;1.10;0.65;;;20.60;83.00;;;;;;10517038;28;20036;-61
2022/08/31 00:19:49;;;;;;;0.73;0.60;;;20.60;82.90;;;;;;10516556;28;20048;-61
2022/08/31 00:24:50;;;;;;;0.95;0.60;;;20.60;82.90;;;;;;10519055;28;20094;-61
2022/08/31 00:29:51;;;;;;;0.63;0.50;;;20.50;82.80;;;;;;10520460;28;20107;-61
2022/08/31 00:34:52;;;;;;;1.60;0.50;;;20.50;82.80;;;;;;10514834;28;20020;-61
2022/08/31 00:39:53;;;;;;;0.60;0.55;;;20.50;82.80;;;;;;10517540;28;20028;-61
2022/08/31 00:44:54;;;;;;;0.80;0.60;;;20.50;82.80;;;;;;10510551;28;20032;-61
2022/08/31 00:49:55;;;;;;;0.95;0.70;;;20.40;82.70;;;;;;10515254;28;20029;-61
2022/08/31 00:55:00;;;;;;;3.05;0.60;;;20.40;82.70;;;;;;10515261;28;20024;-61
2022/08/31 01:00:06;;;;;;;0.80;0.52;;;20.40;82.60;;;;;;10523418;28;20029;-61
2022/08/31 01:05:08;;;;;;;1.88;0.60;;;20.40;82.60;;;;;;10529657;28;20020;-61
2022/08/31 01:10:10;;;;;;;0.60;0.60;;;20.30;82.60;;;;;;10515369;28;20016;-61
2022/08/31 01:15:13;;;;;;;1.42;1.33;;;20.30;82.50;;;;;;10527256;28;20021;-61
2022/08/31 01:20:19;;;;;;;1.77;1.13;;;20.30;82.50;;;;;;10526195;28;20083;-61
2022/08/31 01:25:20;;;;;;;2.00;0.52;;;20.30;82.40;;;;;;10526962;28;20103;-61
2022/08/31 01:30:23;;;;;;;0.68;0.45;;;20.30;82.40;;;;;;10513293;28;20547;-61
2022/08/31 01:35:24;;;;;;;0.90;0.40;;;20.20;82.30;;;;;;10528715;28;20559;-62
2022/08/31 01:40:34;;;;;;;0.60;0.43;;;20.20;82.20;;;;;;10528254;28;20028;-61
2022/08/31 01:45:34;;;;;;;1.23;0.55;;;20.20;82.00;;;;;;10520691;28;20035;-61
2022/08/31 01:50:35;;;;;;;0.40;0.40;;;20.20;82.10;;;;;;10527170;28;20032;-61
2022/08/31 01:55:37;;;;;;;0.60;0.57;;;20.20;82.00;;;;;;10516689;28;20051;-61
2022/08/31 02:00:38;;;;;;;1.10;0.70;;;20.20;81.90;;;;;;10517241;28;20024;-61
2022/08/31 02:05:39;;;;;;;0.95;0.50;;;20.10;81.70;;;;;;10514827;28;20097;-61
2022/08/31 02:10:41;;;;;;;1.10;0.60;;;20.10;81.70;;;;;;10513654;28;20077;-61
2022/08/31 02:15:42;;;;;;;0.95;0.40;;;20.10;81.60;;;;;;10515539;28;20139;-61
2022/08/31 02:20:43;;;;;;;1.25;0.60;;;20.00;81.40;;;;;;10517564;28;20052;-61
2022/08/31 02:25:44;;;;;;;1.10;0.60;;;20.00;81.40;;;;;;10526123;28;20390;-61
2022/08/31 02:30:45;;;;;;;0.70;0.50;;;20.00;81.20;;;;;;10515909;28;20021;-61
2022/08/31 02:35:45;;;;;;;0.45;0.40;;;20.00;81.10;;;;;;10521971;28;20040;-61
2022/08/31 02:40:46;;;;;;;0.82;0.47;;;19.90;81.00;;;;;;10515098;28;20024;-61
2022/08/31 02:45:47;;;;;;;0.50;0.30;;;19.90;80.90;;;;;;10520168;28;20042;-61
2022/08/31 02:50:50;;;;;;;0.40;0.40;;;19.90;80.90;;;;;;10519744;28;20034;-61
2022/08/31 02:55:51;;;;;;;0.50;0.40;;;19.80;80.60;;;;;;10513051;28;20127;-61
2022/08/31 03:00:52;;;;;;;0.65;0.50;;;19.80;80.60;;;;;;10513977;28;20107;-61
2022/08/31 03:05:52;;;;;;;0.88;0.45;;;19.80;80.40;;;;;;10513959;28;20028;-61
2022/08/31 03:10:53;;;;;;;1.60;0.50;;;19.80;80.40;;;;;;10516640;28;20069;-61
2022/08/31 03:15:54;;;;;;;0.55;0.40;;;19.80;80.30;;;;;;10524177;28;20075;-61
2022/08/31 03:20:55;;;;;;;0.93;0.47;;;19.70;80.10;;;;;;10521777;28;20161;-62
2022/08/31 03:25:56;;;;;;;0.40;0.40;;;19.70;80.00;;;;;;10527226;28;20438;-61
2022/08/31 03:30:57;;;;;;;0.40;0.40;;;19.70;80.00;;;;;;10529815;28;20024;-61
2022/08/31 03:35:58;;;;;;;2.20;0.50;;;19.70;79.90;;;;;;10524326;28;20082;-62
2022/08/31 03:41:00;;;;;;;0.60;0.40;;;19.70;79.80;;;;;;10535063;28;20049;-61
2022/08/31 03:46:00;;;;;;;0.50;0.30;;;19.60;79.80;;;;;;10529380;28;20121;-61
2022/08/31 03:51:01;;;;;;;1.27;0.32;;;19.60;79.70;;;;;;10527342;28;20473;-61
2022/08/31 03:56:05;;;;;;;1.45;0.63;;;19.60;79.70;;;;;;10525579;28;20036;-61
2022/08/31 04:01:09;;;;;;;1.27;0.30;;;19.50;79.60;;;;;;10529682;28;20028;-61
2022/08/31 04:06:11;;;;;;;1.10;0.43;;;19.50;79.50;;;;;;10518384;28;20144;-61
2022/08/31 04:11:15;;;;;;;0.52;0.30;;;19.50;79.40;;;;;;10528785;28;20538;-61
2022/08/31 04:16:19;;;;;;;0.47;0.28;;;19.50;79.30;;;;;;10524513;28;20036;-61
2022/08/31 04:21:24;;;;;;;0.70;0.40;;;19.40;79.20;;;;;;10516451;28;20051;-61
2022/08/31 04:26:28;;;;;;;0.77;0.40;;;19.40;79.20;;;;;;10524483;28;20437;-61
2022/08/31 04:31:29;;;;;;;0.57;0.40;;;19.40;79.20;;;;;;10516903;28;20012;-61
2022/08/31 04:36:30;;;;;;;0.35;0.20;;;19.40;79.10;;;;;;10530559;28;20036;-61
2022/08/31 04:41:34;;;;;;;0.93;0.43;;;19.30;79.00;;;;;;10524910;28;20146;-61
2022/08/31 04:46:37;;;;;;;1.13;0.57;;;19.30;79.00;;;;;;10522742;28;20031;-61
2022/08/31 04:51:38;;;;;;;0.50;0.30;;;19.30;79.00;;;;;;10527225;28;20448;-61
2022/08/31 04:56:42;;;;;;;0.60;0.30;;;19.30;79.00;;;;;;10532548;28;20396;-61
2022/08/31 05:01:44;;;;;;;1.20;0.50;;;19.20;78.90;;;;;;10529339;28;20020;-61
2022/08/31 05:06:45;;;;;;;0.65;0.40;;;19.20;78.90;;;;;;10525570;28;20027;-61
2022/08/31 05:11:48;;;;;;;0.93;0.30;;;19.20;78.80;;;;;;10527609;28;20206;-61
2022/08/31 05:16:51;;;;;;;1.05;0.30;;;19.20;78.80;;;;;;10457233;28;20616;-61
2022/08/31 05:21:51;;;;;;;0.47;0.30;;;19.20;78.90;;;;;;10448665;28;20047;-61
2022/08/31 05:26:54;;;;;;;0.28;0.20;;;19.10;78.80;;;;;;10444078;28;20488;-61
2022/08/31 05:31:55;;;;;;;0.70;0.30;;;19.10;78.80;;;;;;10459594;28;20295;-61
2022/08/31 05:36:56;;;;;;;1.33;0.20;;;19.10;78.90;;;;;;10454917;28;20284;-61
2022/08/31 05:41:57;;;;;;;0.45;0.30;;;19.10;78.90;;;;;;10461742;28;20555;-61
2022/08/31 05:46:58;;;;;;;0.38;0.32;;;19.10;78.80;;;;;;10448897;28;20035;-62
2022/08/31 05:51:59;;;;;;;1.63;0.35;;;19.00;78.80;;;;;;10448818;28;20119;-61
2022/08/31 05:57:01;;;;;;;0.85;0.40;;;19.00;78.80;;;;;;10457809;28;20553;-61
2022/08/31 06:02:03;;;;;;;0.60;0.40;;;19.00;78.80;;;;;;10447703;28;20028;-62
2022/08/31 06:07:04;;;;;;;0.55;0.30;;;19.00;78.80;;;;;;10453742;28;20057;-61
2022/08/31 06:12:05;;;;;;;0.85;0.40;;;19.00;78.80;;;;;;10447408;28;20717;-61
2022/08/31 06:17:06;;;;;;;0.60;0.30;;;19.00;78.80;;;;;;10460749;28;20128;-61
2022/08/31 06:22:07;;;;;;;0.35;0.35;;;19.00;78.80;;;;;;10456586;28;20071;-61
2022/08/31 06:27:09;;;;;;;0.85;0.40;;;19.00;78.80;;;;;;10452980;28;20468;-61
2022/08/31 06:32:12;;;;;;;0.30;0.30;;;19.00;78.80;;;;;;10455976;28;20024;-61
2022/08/31 06:37:13;;;;;;;0.50;0.35;;;19.00;78.80;;;;;;10458469;28;20032;-61
2022/08/31 06:42:14;;;;;;;2.90;0.57;;;19.00;78.80;;;;;;10452258;28;20388;-61
2022/08/31 06:47:15;;;;;;;0.57;0.30;;;19.00;78.80;;;;;;10454972;28;20037;-61
2022/08/31 06:52:16;;;;;;;0.93;0.50;;;19.00;78.80;;;;;;10456537;28;20032;-61
2022/08/31 06:57:16;;;;;;;0.55;0.35;;;19.00;78.80;;;;;;10447994;28;20040;-61
2022/08/31 07:02:18;;;;;;;0.88;0.40;;;19.10;79.00;;;;;;10448566;28;20462;-61
2022/08/31 07:07:18;;;;;;;0.50;0.40;;;19.10;79.00;;;;;;10444645;28;20094;-61
2022/08/31 07:12:19;;;;;;;0.88;0.40;;;19.10;79.10;;;;;;10450754;28;20070;-61
2022/08/31 07:17:20;;;;;;;0.50;0.50;;;19.10;79.10;;;;;;10450598;28;20098;-61
2022/08/31 07:22:21;;;;;;;1.52;0.38;;;19.10;79.20;;;;;;10421703;28;20438;-61
2022/08/31 07:27:21;;;;;;;0.82;0.50;;;19.20;79.30;;;;;;10439777;28;20063;-61
2022/08/31 07:32:22;;;;;;;0.93;0.38;;;19.20;79.30;;;;;;10441007;28;20435;-62
2022/08/31 07:42:45;;;;;;;0.98;0.75;;;19.30;79.30;;;;;;10439601;28;20645;-62
2022/08/31 07:47:50;;;;;;;0.63;0.50;;;19.30;79.30;;;;;;10438124;28;20031;-61
2022/08/31 07:52:53;;;;;;;0.75;0.30;;;19.40;79.30;;;;;;10430077;28;20633;-61
2022/08/31 07:57:55;;;;;;;1.40;0.40;;;19.40;79.30;;;;;;10437455;28;20747;-61
2022/08/31 08:03:00;;;;;;;0.50;0.30;;;19.40;79.30;;;;;;10433236;28;20415;-61
2022/08/31 08:08:04;;;;;;;0.32;0.32;;;19.50;79.30;;;;;;10432876;28;20437;-61
2022/08/31 08:13:05;;;;;;;0.93;0.40;;;19.40;79.40;;;;;;10434625;28;20521;-61
2022/08/31 08:18:06;;;;;;;0.50;0.40;;;19.50;79.50;;;;;;10439868;28;20077;-61
2022/08/31 08:23:12;;;;;;;2.85;0.40;;;19.50;79.60;;;;;;10434626;28;20462;-61
2022/08/31 08:28:16;;;;;;;1.30;0.30;;;19.50;79.60;;;;;;10435634;28;20462;-61
2022/08/31 08:33:17;;;;;;;0.50;0.30;;;19.50;79.70;;;;;;10437157;28;20143;-61
2022/08/31 08:38:18;;;;;;;4.32;0.50;;;19.50;79.70;;;;;;10433570;28;20059;-61
2022/08/31 08:43:22;;;;;;;0.68;0.40;;;19.50;79.80;;;;;;10420702;28;20032;-61
2022/08/31 08:48:26;;;;;;;0.68;0.45;;;19.60;79.90;;;;;;10410269;28;20083;-61
2022/08/31 08:53:30;;;;;;;0.55;0.28;;;19.60;79.90;;;;;;10434090;28;20387;-61
2022/08/31 08:58:34;;;;;;;0.43;0.30;;;19.60;79.80;;;;;;10435347;28;20073;-62
2022/08/31 09:03:47;;;;;;;0.30;0.30;;;19.60;79.80;;;;;;10434123;28;20547;-61
2022/08/31 09:08:48;;;;;;;0.50;0.30;;;19.60;80.00;;;;;;10427384;28;20039;-61
2022/08/31 09:14:21;;;;;;;0.50;0.40;;;19.70;80.00;;;;;;10435094;28;20139;-61
2022/08/31 09:19:21;;;;;;;0.30;0.30;;;19.70;80.00;;;;;;10437659;28;20539;-61
2022/08/31 09:24:27;;;;;;;0.80;0.38;;;19.80;79.90;;;;;;10438135;28;20050;-61
2022/08/31 09:29:31;;;;;;;0.60;0.40;;;19.80;80.00;;;;;;10438736;28;20459;-62
2022/08/31 09:34:36;;;;;;;0.30;0.30;;;19.80;79.90;;;;;;10440017;28;20051;-61
2022/08/31 09:39:36;;;;;;;0.57;0.38;;;19.50;79.70;;;;;;10428174;28;20037;-61
2022/08/31 09:44:41;;;;;;;0.47;0.30;;;19.90;79.80;;;;;;10423455;28;20028;-61
2022/08/31 09:49:53;;;;;;;0.32;0.32;;;20.00;79.80;;;;;;10435618;28;20802;-61
2022/08/31 09:55:12;;;;;;;1.13;0.35;;;20.00;79.80;;;;;;10441628;28;20126;-61
2022/08/31 10:00:17;;;;;;;0.60;0.40;;;20.00;79.60;;;;;;10439202;28;20283;-62
2022/08/31 10:05:39;;;;;;;0.68;0.45;;;20.10;79.60;;;;;;10441224;28;20044;-61
2022/08/31 10:10:43;;;;;;;0.50;0.30;;;20.10;79.40;;;;;;10443327;28;20032;-61
2022/08/31 10:15:57;;;;;;;0.40;0.30;;;20.20;79.40;;;;;;10438432;28;20048;-61
2022/08/31 10:21:13;;;;;;;0.43;0.40;;;20.20;79.40;;;;;;10438787;28;20410;-61
2022/08/31 10:26:30;;;;;;;0.80;0.30;;;20.20;79.20;;;;;;10434097;28;20032;-61
2022/08/31 10:31:44;;;;;;;0.52;0.30;;;20.20;79.20;;;;;;10425943;28;20477;-62
2022/08/31 10:36:48;;;;;;;1.17;0.30;;;20.70;79.40;;;;;;10428902;28;20456;-62
2022/08/31 10:41:50;;;;;;;0.68;0.40;;;20.60;79.10;;;;;;10440374;28;20024;-61
2022/08/31 10:46:53;;;;;;;1.70;0.70;;;20.40;78.90;;;;;;10426497;28;20112;-62
2022/08/31 10:52:02;;;;;;;0.65;0.40;;;20.50;78.80;;;;;;10429055;28;20428;-62
2022/08/31 10:57:22;;;;;;;0.60;0.40;;;20.50;78.70;;;;;;10435667;28;20048;-62
2022/08/31 11:02:54;;;;;;;0.40;0.30;;;20.60;78.50;;;;;;10431220;28;20617;-62
2022/08/31 11:08:20;;;;;;;0.60;0.35;;;20.70;78.40;;;;;;10428796;28;20020;-62
2022/08/31 11:13:52;;;;;;;0.57;0.32;;;20.70;78.40;;;;;;10437444;28;20016;-62
2022/08/31 11:19:37;;;;;;;0.95;0.35;;;20.80;78.30;;;;;;10433828;28;20056;-62
2022/08/31 11:25:03;;;;;;;1.50;0.50;;;20.90;78.20;;;;;;10437029;28;20031;-62
2022/08/31 11:30:09;;;;;;;3.42;0.40;;;20.90;78.10;;;;;;10435849;28;20025;-62
2022/08/31 11:35:13;;;;;;;0.57;0.38;;;20.90;78.10;;;;;;10439955;28;20039;-62
2022/08/31 11:40:40;;;;;;;0.90;0.40;;;21.00;78.10;;;;;;10439504;28;20023;-62
2022/08/31 11:45:41;;;;;;;2.45;0.30;;;21.10;78.20;;;;;;10436150;28;20391;-62
2022/08/31 11:50:48;;;;;;;0.55;0.30;;;21.10;78.10;;;;;;10432418;28;20547;-62
2022/08/31 11:55:54;;;;;;;0.50;0.35;;;21.20;78.00;;;;;;10430160;28;20071;-62
2022/08/31 12:01:03;;;;;;;0.80;0.35;;;21.30;78.10;;;;;;10435834;28;20020;-62
2022/08/31 12:06:09;;;;;;;0.47;0.40;;;21.30;77.90;;;;;;10438753;28;20034;-62
2022/08/31 12:11:18;;;;;;;0.55;0.30;;;21.40;77.90;;;;;;10439931;28;20078;-62
2022/08/31 12:16:49;;;;;;;3.75;0.38;;;21.70;78.10;;;;;;10426957;28;20047;-62
2022/08/31 12:27:38;;;;;;;0.63;0.40;;;21.60;77.80;;;;;;10449101;28;20320;-62
2022/08/31 12:32:42;;;;;;;3.10;0.57;;;21.70;77.80;;;;;;10453218;28;20062;-62
2022/08/31 12:37:43;;;;;;;0.65;0.40;;;21.70;77.70;;;;;;10449724;28;20048;-62
2022/08/31 12:43:08;;;;;;;0.93;0.40;;;21.80;77.70;;;;;;10438622;28;20221;-62
2022/08/31 12:48:21;;;;;;;0.90;0.40;;;21.90;77.90;;;;;;10445264;28;20032;-62
2022/08/31 12:54:03;;;;;;;0.50;0.40;;;21.90;78.00;;;;;;10448531;28;20032;-62
2022/08/31 12:59:42;;;;;;;0.52;0.30;;;21.90;77.80;;;;;;10455458;28;20044;-61
2022/08/31 13:04:45;;;;;;;0.80;0.40;;;22.00;77.90;;;;;;10451715;28;20036;-62
2022/08/31 13:09:46;;;;;;;0.82;0.60;;;22.00;77.90;;;;;;10458653;28;20036;-62
2022/08/31 13:14:46;;;;;;;0.70;0.30;;;22.10;78.00;;;;;;10447203;28;20024;-61
2022/08/31 13:19:52;;;;;;;1.10;0.30;;;22.10;78.00;;;;;;10445325;28;20102;-62
2022/08/31 13:24:54;;;;;;;2.53;0.30;;;22.20;78.10;;;;;;10433983;28;20028;-62
2022/08/31 13:30:09;;;;;;;1.23;0.30;;;22.20;78.20;;;;;;10437072;28;20445;-62
2022/08/31 13:35:13;;;;;;;0.85;0.40;;;22.30;78.40;;;;;;10435111;28;20031;-62
2022/08/31 13:40:17;;;;;;;0.43;0.32;;;22.40;78.50;;;;;;10437401;28;20044;-62
2022/08/31 13:45:29;;;;;;;0.55;0.45;;;22.50;78.40;;;;;;10433208;28;20074;-62
2022/08/31 13:50:53;;;;;;;1.15;0.60;;;22.60;78.50;;;;;;10436738;28;20032;-62
2022/08/31 13:55:54;;;;;;;0.50;0.50;;;22.70;78.60;;;;;;10438369;28;20134;-62
2022/08/31 14:01:23;;;;;;;0.52;0.40;;;22.80;78.40;;;;;;10435326;28;20199;-62
2022/08/31 14:06:34;;;;;;;4.22;0.52;;;22.80;78.50;;;;;;10444510;28;20037;-62
2022/08/31 14:11:35;;;;;;;0.43;0.32;;;22.90;78.20;;;;;;10434948;28;20281;-62
2022/08/31 14:16:44;;;;;;;0.90;0.40;;;23.00;78.10;;;;;;10440574;28;20872;-62
2022/08/31 14:21:45;;;;;;;1.05;0.40;;;23.10;77.90;;;;;;10408113;28;20580;-62
2022/08/31 14:26:46;;;;;;;0.75;0.38;;;23.20;77.80;;;;;;10419491;28;20036;-62
2022/08/31 14:31:50;;;;;;;1.33;0.40;;;23.30;77.60;;;;;;10423010;28;20187;-61
2022/08/31 14:36:56;;;;;;;0.82;0.40;;;23.40;77.60;;;;;;10421397;28;20568;-62
2022/08/31 14:42:01;;;;;;;0.40;0.40;;;23.60;77.50;;;;;;10422661;28;20516;-62
2022/08/31 14:47:02;;;;;;;0.40;0.30;;;23.70;77.20;;;;;;10410686;28;20194;-62
2022/08/31 14:52:05;;;;;;;0.40;0.40;;;23.70;77.10;;;;;;10418399;28;20050;-62
2022/08/31 14:57:10;;;;;;;1.05;0.50;;;23.80;76.70;;;;;;10419732;28;20043;-63
2022/08/31 15:02:15;;;;;;;1.52;0.65;;;24.00;76.60;;;;;;10416810;28;20042;-62
2022/08/31 15:07:16;;;;;;;0.82;0.50;;;24.10;76.60;;;;;;10415109;28;20030;-62
2022/08/31 15:12:18;;;;;;;0.60;0.40;;;24.20;76.40;;;;;;10421465;28;20816;-62
2022/08/31 15:17:20;;;;;;;0.75;0.50;;;24.20;76.00;;;;;;10420465;28;20036;-62
2022/08/31 15:22:24;;;;;;;0.80;0.35;;;24.40;76.00;;;;;;10431515;28;20052;-62
2022/08/31 15:27:30;;;;;;;0.60;0.38;;;24.50;75.90;;;;;;10436304;28;20421;-62
2022/08/31 15:32:31;;;;;;;0.70;0.40;;;24.50;75.60;;;;;;10436276;28;20536;-62
2022/08/31 15:37:31;;;;;;;0.40;0.30;;;24.70;75.30;;;;;;10437689;28;20036;-62
2022/08/31 15:42:37;;;;;;;0.73;0.45;;;24.70;75.40;;;;;;10432975;28;20032;-62
2022/08/31 15:53:05;;;;;;;0.80;0.40;;;24.80;75.40;;;;;;10439649;28;20041;-62
2022/08/31 15:58:07;;;;;;;0.85;0.40;;;24.70;75.70;;;;;;10423681;28;20582;-62
2022/08/31 16:03:08;;;;;;;1.00;0.50;;;24.60;76.10;;;;;;10426639;28;20393;-62
2022/08/31 16:08:10;;;;;;;2.25;0.50;;;24.40;76.30;;;;;;10431647;28;20394;-62
2022/08/31 16:13:11;;;;;;;0.68;0.40;;;24.30;76.50;;;;;;10430299;28;20457;-62
2022/08/31 16:18:12;;;;;;;0.60;0.40;;;24.30;76.60;;;;;;10420429;28;20032;-62
2022/08/31 16:23:13;;;;;;;2.60;0.40;;;24.20;76.80;;;;;;10423431;28;20043;-62
2022/08/31 16:28:18;;;;;;;0.60;0.30;;;24.10;77.00;;;;;;10424549;28;20055;-62
2022/08/31 16:33:19;;;;;;;0.47;0.30;;;24.10;77.10;;;;;;10434152;28;20983;-62
2022/08/31 16:38:20;;;;;;;0.63;0.40;;;24.00;77.30;;;;;;10421635;28;20496;-62
2022/08/31 16:43:21;;;;;;;0.73;0.38;;;24.00;77.30;;;;;;10423122;28;20031;-62
2022/08/31 16:53:43;;;;;;;0.50;0.43;;;23.80;77.30;;;;;;10431482;28;20308;-61
2022/08/31 16:58:45;;;;;;;0.88;0.40;;;23.80;77.50;;;;;;10439390;28;20060;-62
2022/08/31 17:03:51;;;;;;;1.27;0.50;;;23.70;77.70;;;;;;10440316;28;20062;-62
2022/08/31 17:08:54;;;;;;;0.50;0.40;;;23.70;77.70;;;;;;10430851;28;20047;-62
2022/08/31 17:13:58;;;;;;;0.57;0.30;;;23.70;77.80;;;;;;10439922;28;20054;-62
2022/08/31 17:18:59;;;;;;;0.50;0.40;;;23.60;77.70;;;;;;10439089;28;20412;-62
2022/08/31 17:24:02;;;;;;;1.05;0.50;;;23.60;77.70;;;;;;10447139;28;20032;-62
2022/08/31 17:29:04;;;;;;;1.08;0.20;;;23.60;77.90;;;;;;10447432;28;20058;-62
2022/08/31 17:34:05;;;;;;;0.70;0.40;;;23.50;78.00;;;;;;10454155;28;20379;-62
2022/08/31 17:39:08;;;;;;;0.65;0.38;;;23.40;78.00;;;;;;10454435;28;20032;-62
2022/08/31 17:44:15;;;;;;;0.65;0.32;;;23.40;78.00;;;;;;10451105;28;20034;-62
2022/08/31 17:49:17;;;;;;;0.70;0.60;;;23.40;78.20;;;;;;10455607;28;20503;-62
2022/08/31 17:54:31;;;;;;;0.38;0.30;;;23.30;78.30;;;;;;10452810;28;20032;-61
2022/08/31 17:59:35;;;;;;;0.60;0.45;;;23.30;78.50;;;;;;10447033;28;20044;-61
2022/08/31 18:04:37;;;;;;;2.28;0.40;;;23.20;78.60;;;;;;10453342;28;20475;-61
2022/08/31 18:09:41;;;;;;;0.50;0.40;;;23.20;78.70;;;;;;10435792;28;20031;-61
2022/08/31 18:14:42;;;;;;;3.30;0.57;;;23.10;78.80;;;;;;10454430;28;20585;-61
2022/08/31 18:19:44;;;;;;;0.30;0.30;;;23.10;79.00;;;;;;10461940;28;20051;-61
2022/08/31 18:24:45;;;;;;;0.60;0.40;;;23.00;79.00;;;;;;10454375;28;20426;-62
2022/08/31 18:29:45;;;;;;;0.88;0.50;;;22.90;79.10;;;;;;10456786;28;20138;-61
2022/08/31 18:34:46;;;;;;;0.50;0.40;;;22.80;79.20;;;;;;10465895;28;20484;-61
2022/08/31 18:45:19;;;;;;;1.65;0.45;;;22.80;79.40;;;;;;10442660;28;20020;-61
2022/08/31 18:50:21;;;;;;;0.90;0.50;;;22.80;79.40;;;;;;10446740;28;20404;-61
2022/08/31 18:55:21;;;;;;;0.52;0.50;;;22.70;79.50;;;;;;10439167;28;20146;-61
2022/08/31 19:00:22;;;;;;;0.60;0.43;;;22.70;79.50;;;;;;10532362;28;20168;-62
2022/08/31 19:05:23;;;;;;;0.50;0.30;;;22.60;79.60;;;;;;10529792;28;20012;-62
2022/08/31 19:10:25;;;;;;;0.55;0.38;;;22.60;79.60;;;;;;10528034;28;20127;-61
2022/08/31 19:15:25;;;;;;;0.70;0.50;;;22.50;79.60;;;;;;10530509;28;20039;-62
2022/08/31 19:20:27;;;;;;;1.67;0.65;;;22.40;79.50;;;;;;10530912;28;20475;-62
2022/08/31 19:25:30;;;;;;;3.00;0.70;;;22.20;79.40;;;;;;10527396;28;20518;-62
2022/08/31 19:30:31;;;;;;;2.85;0.75;;;22.10;79.30;;;;;;10516912;28;20041;-62
2022/08/31 19:35:37;;;;;;;3.15;0.90;;;22.10;79.20;;;;;;10518632;28;20028;-62
2022/08/31 19:40:38;;;;;;;1.48;0.63;;;22.10;79.00;;;;;;10511552;28;20126;-62
2022/08/31 19:45:39;;;;;;;4.20;0.80;;;22.10;78.90;;;;;;10522080;28;20031;-62
2022/08/31 19:50:40;;;;;;;2.90;0.55;;;22.10;78.90;;;;;;10515876;28;20024;-62
2022/08/31 19:55:48;;;;;;;0.77;0.50;;;22.10;78.90;;;;;;10514845;28;20043;-62
2022/08/31 20:00:49;;;;;;;0.60;0.50;;;22.00;78.80;;;;;;10520603;28;20028;-62
2022/08/31 20:05:50;;;;;;;2.25;0.68;;;22.00;78.90;;;;;;10523332;28;20493;-62
2022/08/31 20:10:50;;;;;;;2.28;0.60;;;22.00;79.00;;;;;;10519597;28;20109;-62
2022/08/31 20:15:51;;;;;;;1.52;0.80;;;21.90;79.00;;;;;;10521630;28;20408;-62
2022/08/31 20:20:53;;;;;;;1.73;0.60;;;21.90;79.00;;;;;;10495676;28;20040;-62
2022/08/31 20:25:56;;;;;;;1.45;0.70;;;21.90;79.10;;;;;;10508091;28;20161;-62
2022/08/31 20:30:58;;;;;;;1.80;0.68;;;21.90;79.10;;;;;;10510993;28;20046;-62
2022/08/31 20:36:00;;;;;;;1.70;0.93;;;21.80;79.20;;;;;;10508613;28;20107;-62
2022/08/31 20:41:02;;;;;;;3.00;0.90;;;21.80;79.20;;;;;;10512247;28;20036;-62
2022/08/31 20:46:04;;;;;;;2.78;0.55;;;21.70;79.20;;;;;;10510736;28;20032;-62
2022/08/31 20:51:14;;;;;;;0.75;0.60;;;21.70;79.20;;;;;;10506728;28;20062;-62
2022/08/31 20:56:17;;;;;;;0.80;0.47;;;21.70;79.30;;;;;;10509986;28;20413;-62
2022/08/31 21:01:17;;;;;;;1.73;0.80;;;21.60;79.20;;;;;;10507406;28;20016;-62
2022/08/31 21:06:24;;;;;;;1.75;0.90;;;21.60;79.30;;;;;;10509343;28;20104;-62
2022/08/31 21:11:25;;;;;;;1.10;0.77;;;21.50;79.30;;;;;;10511259;28;20488;-61
2022/08/31 21:16:28;;;;;;;1.45;0.70;;;21.50;79.40;;;;;;10513237;28;20040;-62
2022/08/31 21:21:29;;;;;;;1.88;0.70;;;21.50;79.40;;;;;;10515002;28;20109;-62
2022/08/31 21:26:30;;;;;;;1.38;0.85;;;21.40;79.30;;;;;;10515460;28;20101;-62
2022/08/31 21:31:31;;;;;;;0.82;0.70;;;21.40;79.40;;;;;;10524329;28;20055;-62
2022/08/31 21:36:32;;;;;;;1.95;0.77;;;21.40;79.40;;;;;;10524161;28;20380;-62
2022/08/31 21:41:35;;;;;;;1.95;1.00;;;21.30;79.40;;;;;;10523146;28;20038;-62
2022/08/31 21:46:37;;;;;;;3.00;1.00;;;21.30;79.40;;;;;;10518151;28;20446;-62
2022/08/31 21:51:44;;;;;;;1.83;0.75;;;21.30;79.50;;;;;;10520587;28;20020;-62
2022/08/31 21:56:54;;;;;;;3.20;1.15;;;21.30;79.50;;;;;;10520903;28;20039;-62
2022/08/31 22:01:59;;;;;;;1.08;0.80;;;21.20;79.50;;;;;;10515336;28;20013;-62
2022/08/31 22:07:02;;;;;;;1.67;0.73;;;21.20;79.50;;;;;;10521703;28;20551;-62
2022/08/31 22:12:06;;;;;;;1.30;0.90;;;21.10;79.50;;;;;;10514069;28;20024;-62
2022/08/31 22:17:08;;;;;;;2.10;0.80;;;21.10;79.50;;;;;;10516121;28;20392;-62
2022/08/31 22:22:11;;;;;;;1.30;0.90;;;21.00;79.40;;;;;;10517546;28;20078;-62
2022/08/31 22:27:11;;;;;;;1.45;0.90;;;21.00;79.50;;;;;;10519376;28;20031;-62
2022/08/31 22:32:13;;;;;;;2.45;0.90;;;21.00;79.50;;;;;;10520504;28;20024;-62
2022/08/31 22:37:15;;;;;;;1.83;0.88;;;21.00;79.50;;;;;;10514874;28;20405;-62
2022/08/31 22:42:16;;;;;;;1.77;0.90;;;20.90;79.40;;;;;;10514860;28;20036;-62
2022/08/31 22:47:17;;;;;;;1.52;0.88;;;20.90;79.50;;;;;;10520206;28;20033;-63
2022/08/31 22:52:18;;;;;;;2.25;0.98;;;20.80;79.40;;;;;;10523468;28;20035;-62
2022/08/31 22:57:18;;;;;;;2.40;0.80;;;20.80;79.50;;;;;;10522931;28;20043;-62
2022/08/31 23:02:19;;;;;;;1.60;0.90;;;20.80;79.50;;;;;;10503110;28;20030;-62
2022/08/31 23:07:21;;;;;;;1.20;1.00;;;20.70;79.40;;;;;;10513934;28;20035;-62
2022/08/31 23:12:21;;;;;;;1.20;0.98;;;20.70;79.50;;;;;;10518865;28;20052;-62
2022/08/31 23:17:22;;;;;;;2.85;1.08;;;20.70;79.50;;;;;;10518817;28;20123;-62
2022/08/31 23:22:23;;;;;;;0.93;0.60;;;20.70;79.50;;;;;;10526588;28;20047;-62
2022/08/31 23:27:24;;;;;;;1.00;0.63;;;20.60;79.50;;;;;;10532516;28;20024;-62
2022/08/31 23:32:26;;;;;;;1.75;1.02;;;20.60;79.50;;;;;;10526890;28;20025;-62
2022/08/31 23:37:29;;;;;;;1.27;0.80;;;20.50;79.50;;;;;;10526441;28;20511;-62
2022/08/31 23:42:32;;;;;;;1.20;1.02;;;20.50;79.50;;;;;;10526422;28;20699;-62
2022/08/31 23:47:33;;;;;;;2.05;0.82;;;20.50;79.50;;;;;;10533174;28;20028;-62
2022/08/31 23:52:36;;;;;;;1.60;0.90;;;20.40;79.50;;;;;;10538798;28;20388;-62
2022/08/31 23:57:38;;;;;;;2.55;0.88;;;20.40;79.50;;;;;;10522910;28;20040;-62
